Time;durP1;ratioP1;P1;durP2;ratioP2;P2;SDS_P1;SDS_P2;PMS_P1;PMS_P2;Temp;Humidity;BMP_temperature;BMP_pressure;BME280_temperature;BME280_humidity;BME280_pressure;Samples;Min_cycle;Max_cycle;Signal;HPM_P1;HPM_P2
2023/05/01 00:00:25;;;;;;;12.30;5.65;;;;;;;16.99;47.53;98273.59;4455991;32;20116;-81
2023/05/01 00:02:53;;;;;;;12.30;7.05;;;;;;;16.96;47.95;98273.81;4456222;32;20093;-81
2023/05/01 00:05:20;;;;;;;12.10;6.05;;;;;;;16.42;49.39;98278.13;4455818;32;20125;-81
2023/05/01 00:07:47;;;;;;;12.20;5.47;;;;;;;16.95;48.50;98277.34;4455793;32;20149;-81
2023/05/01 00:10:14;;;;;;;11.05;5.60;;;;;;;17.10;47.96;98278.09;4456004;32;20081;-81
2023/05/01 00:12:41;;;;;;;11.15;5.72;;;;;;;16.99;47.73;98271.00;4442161;32;20135;-81
2023/05/01 00:15:08;;;;;;;10.18;4.90;;;;;;;16.62;48.46;98275.12;4455601;32;20101;-81
2023/05/01 00:17:35;;;;;;;10.35;4.80;;;;;;;16.91;47.95;98275.88;4455919;32;20111;-81
2023/05/01 00:20:04;;;;;;;11.40;5.20;;;;;;;16.93;47.46;98273.19;4456022;32;20116;-81
2023/05/01 00:22:31;;;;;;;10.73;4.53;;;;;;;16.80;47.97;98273.13;4455707;32;20092;-81
2023/05/01 00:24:58;;;;;;;10.35;4.50;;;;;;;16.00;49.93;98274.66;4455940;32;20101;-81
2023/05/01 00:27:25;;;;;;;8.38;3.92;;;;;;;16.22;49.62;98275.94;4455963;32;20086;-81
2023/05/01 00:29:52;;;;;;;9.40;4.30;;;;;;;16.19;49.76;98266.56;4455314;32;20084;-81
2023/05/01 00:32:19;;;;;;;9.13;4.47;;;;;;;15.72;51.96;98272.03;4441921;32;20108;-81
2023/05/01 00:34:47;;;;;;;9.40;4.20;;;;;;;15.43;52.81;98279.78;4455932;32;20105;-81
2023/05/01 00:37:14;;;;;;;9.55;4.18;;;;;;;15.80;51.41;98275.84;4455560;32;20107;-81
2023/05/01 00:39:41;;;;;;;9.32;4.07;;;;;;;15.12;53.56;98272.09;4455798;32;20150;-81
2023/05/01 00:42:08;;;;;;;9.07;4.30;;;;;;;15.15;53.65;98270.16;4455349;32;20111;-81
2023/05/01 00:44:35;;;;;;;10.02;4.50;;;;;;;15.27;53.41;98266.00;4455674;32;20097;-81
2023/05/01 00:47:03;;;;;;;11.10;4.93;;;;;;;15.98;51.13;98268.72;4455710;32;20432;-81
2023/05/01 00:49:31;;;;;;;12.65;4.45;;;;;;;15.47;52.01;98277.84;4455193;32;20078;-81
2023/05/01 00:51:58;;;;;;;12.50;4.40;;;;;;;15.86;51.19;98274.66;4455774;32;20115;-81
2023/05/01 00:54:27;;;;;;;10.65;5.30;;;;;;;15.69;51.52;98272.22;4455042;32;20120;-81
2023/05/01 00:56:54;;;;;;;10.05;4.95;;;;;;;16.12;50.22;98268.69;4455184;32;20085;-81
2023/05/01 00:59:21;;;;;;;10.40;4.80;;;;;;;15.84;51.68;98279.97;4441551;32;20086;-81
2023/05/01 01:01:49;;;;;;;11.27;5.12;;;;;;;15.80;51.78;98275.84;4455475;32;20167;-81
2023/05/01 01:04:16;;;;;;;12.27;5.30;;;;;;;15.50;52.79;98275.03;4455035;32;20093;-81
2023/05/01 01:06:55;;;;;;;11.18;5.00;;;;;;;15.88;50.98;98273.63;4457353;32;20504;-81
2023/05/01 01:09:52;;;;;;;12.85;5.45;;;;;;;13.48;58.98;98267.94;4457297;32;20081;-81
2023/05/01 01:12:34;;;;;;;10.00;5.10;;;;;;;15.15;54.77;98264.94;4457208;32;20131;-81
2023/05/01 01:15:28;;;;;;;10.20;5.37;;;;;;;15.46;52.96;98266.59;4443547;32;20125;-81
2023/05/01 01:18:08;;;;;;;12.18;4.78;;;;;;;15.78;52.59;98271.69;4442949;32;20089;-81
2023/05/01 01:20:45;;;;;;;9.80;4.80;;;;;;;15.99;51.99;98265.19;4443576;32;20081;-81
2023/05/01 01:23:25;;;;;;;10.18;5.28;;;;;;;15.34;53.38;98275.97;4443618;32;20123;-81
2023/05/01 01:26:02;;;;;;;9.15;4.37;;;;;;;15.87;52.81;98274.56;4457178;32;20089;-81
2023/05/01 01:28:51;;;;;;;10.38;4.65;;;;;;;16.41;49.73;98271.25;4443394;32;20085;-81
2023/05/01 01:31:29;;;;;;;9.05;4.18;;;;;;;16.74;48.87;98266.53;4456933;32;20104;-81
2023/05/01 01:34:01;;;;;;;10.00;4.55;;;;;;;15.83;50.61;98270.47;4443267;32;20383;-81
2023/05/01 01:36:38;;;;;;;9.52;4.93;;;;;;;15.97;50.73;98268.81;4443444;32;20109;-81
2023/05/01 01:39:10;;;;;;;11.07;4.90;;;;;;;15.55;52.18;98276.47;4442931;32;20081;-81
2023/05/01 01:41:38;;;;;;;9.90;4.18;;;;;;;15.68;52.20;98279.19;4443334;32;20107;-81
2023/05/01 01:44:09;;;;;;;10.10;4.87;;;;;;;15.73;52.01;98274.53;4457088;32;20105;-81
2023/05/01 01:46:38;;;;;;;10.50;4.87;;;;;;;15.44;52.85;98272.81;4456837;32;20452;-81
2023/05/01 01:49:15;;;;;;;10.57;5.03;;;;;;;14.81;54.92;98273.84;4443136;32;20089;-81
2023/05/01 01:51:43;;;;;;;9.10;4.25;;;;;;;16.00;51.13;98274.66;4443271;32;20093;-81
2023/05/01 01:54:12;;;;;;;11.25;4.78;;;;;;;15.98;51.27;98279.13;4456685;32;20136;-81
2023/05/01 01:56:41;;;;;;;9.27;4.47;;;;;;;15.59;51.84;98275.34;4443287;32;20117;-81
2023/05/01 01:59:09;;;;;;;9.32;4.35;;;;;;;16.05;50.85;98276.97;4456885;32;20104;-81
2023/05/01 02:01:38;;;;;;;9.57;4.68;;;;;;;16.33;49.61;98273.50;4442822;32;20081;-81
2023/05/01 02:04:06;;;;;;;10.10;5.03;;;;;;;16.01;50.95;98270.28;4442058;32;20161;-81
2023/05/01 02:06:34;;;;;;;10.30;4.65;;;;;;;15.81;51.68;98274.09;4456760;32;20507;-81
2023/05/01 02:09:02;;;;;;;8.93;4.50;;;;;;;15.86;51.76;98283.31;4443106;32;20089;-81
2023/05/01 02:11:30;;;;;;;11.00;4.82;;;;;;;15.50;52.63;98278.47;4443159;32;20077;-81
2023/05/01 02:13:59;;;;;;;9.88;4.90;;;;;;;15.55;52.67;98276.47;4442617;32;20097;-81
2023/05/01 02:16:26;;;;;;;9.65;4.90;;;;;;;15.71;52.54;98284.22;4442591;32;20475;-81
2023/05/01 02:18:54;;;;;;;10.95;4.65;;;;;;;14.87;55.20;98283.03;4443018;32;20436;-81
2023/05/01 02:21:22;;;;;;;10.13;4.78;;;;;;;15.00;54.72;98284.03;4442553;32;20474;-81
2023/05/01 02:23:49;;;;;;;10.65;5.10;;;;;;;15.54;53.21;98285.19;4456735;32;20573;-81
2023/05/01 02:26:17;;;;;;;10.25;5.10;;;;;;;15.39;53.51;98274.84;4456889;32;20141;-81
2023/05/01 02:28:44;;;;;;;10.95;4.87;;;;;;;15.40;53.99;98279.09;4442549;32;20108;-81
2023/05/01 02:31:11;;;;;;;10.70;5.35;;;;;;;14.64;56.63;98279.13;4456751;32;20076;-81
2023/05/01 02:33:38;;;;;;;10.52;4.97;;;;;;;15.20;54.96;98275.91;4442928;32;20097;-81
2023/05/01 02:36:05;;;;;;;10.13;4.80;;;;;;;15.25;54.86;98280.84;4456401;32;20111;-81
2023/05/01 02:38:32;;;;;;;10.85;5.40;;;;;;;15.09;54.92;98286.06;4456768;32;20084;-81
2023/05/01 02:40:59;;;;;;;11.45;4.68;;;;;;;15.24;54.60;98279.19;4456726;32;20092;-81
2023/05/01 02:43:27;;;;;;;10.02;4.93;;;;;;;15.49;53.94;98286.37;4442524;32;20101;-81
2023/05/01 02:45:55;;;;;;;13.15;5.10;;;;;;;15.37;53.65;98277.53;4442617;32;20109;-81
2023/05/01 02:48:25;;;;;;;13.65;5.70;;;;;;;14.99;55.27;98283.19;4456321;32;20137;-81
2023/05/01 02:50:54;;;;;;;11.10;5.45;;;;;;;15.13;55.79;98281.56;4442514;32;20352;-81
2023/05/01 02:53:21;;;;;;;11.57;4.93;;;;;;;15.47;55.46;98286.47;4442934;32;20589;-81
2023/05/01 02:55:52;;;;;;;11.10;5.47;;;;;;;16.28;52.54;98285.97;4456236;32;20085;-81
2023/05/01 02:58:19;;;;;;;11.25;5.35;;;;;;;15.62;55.08;98284.75;4456679;32;20089;-81
2023/05/01 03:00:48;;;;;;;11.68;5.72;;;;;;;16.15;53.79;98286.72;4456606;32;20146;-81
2023/05/01 03:03:16;;;;;;;11.80;5.53;;;;;;;16.24;53.91;98282.72;4456265;32;20084;-81
2023/05/01 03:05:43;;;;;;;11.15;5.37;;;;;;;16.25;54.04;98281.78;4456378;32;20156;-81
2023/05/01 03:08:10;;;;;;;11.30;5.75;;;;;;;16.04;55.28;98278.72;4456561;32;20099;-81
2023/05/01 03:10:43;;;;;;;13.10;6.60;;;;;;;14.57;59.71;98275.19;4456137;32;20077;-81
2023/05/01 03:13:10;;;;;;;13.32;6.55;;;;;;;14.68;61.55;98273.69;4456510;32;20093;-81
2023/05/01 03:15:38;;;;;;;10.07;4.65;;;;;;;15.22;59.80;98281.88;4456482;32;20093;-81
2023/05/01 03:18:05;;;;;;;11.18;5.20;;;;;;;16.13;56.88;98277.34;4456093;32;20147;-81
2023/05/01 03:20:32;;;;;;;10.05;4.03;;;;;;;16.27;55.56;98284.28;4456520;32;20103;-81
2023/05/01 03:23:00;;;;;;;8.57;4.85;;;;;;;16.41;54.26;98277.31;4456501;32;20089;-81
2023/05/01 03:25:27;;;;;;;9.52;4.95;;;;;;;16.24;54.26;98281.88;4456068;32;20369;-81
2023/05/01 03:27:54;;;;;;;9.57;4.57;;;;;;;16.00;54.88;98279.84;4455626;32;20089;-81
2023/05/01 03:30:21;;;;;;;10.63;5.18;;;;;;;16.16;55.31;98280.59;4456196;32;20085;-81
2023/05/01 03:32:48;;;;;;;11.18;5.47;;;;;;;16.30;55.04;98284.13;4456075;32;20184;-81
2023/05/01 03:35:15;;;;;;;11.65;5.93;;;;;;;16.00;57.77;98285.06;4456351;32;20157;-81
2023/05/01 03:37:42;;;;;;;11.57;5.80;;;;;;;16.00;59.53;98274.66;4455985;32;20360;-81
2023/05/01 03:40:09;;;;;;;13.05;5.85;;;;;;;15.79;61.79;98286.34;4456431;32;20154;-81
2023/05/01 03:42:36;;;;;;;11.32;5.12;;;;;;;16.30;61.44;98289.31;4456321;32;20094;-81
2023/05/01 03:45:03;;;;;;;11.90;5.68;;;;;;;16.14;62.48;98282.44;4455844;32;20081;-81
2023/05/01 03:47:30;;;;;;;12.98;6.20;;;;;;;16.65;60.09;98282.72;4456306;32;20085;-81
2023/05/01 03:49:57;;;;;;;13.55;6.82;;;;;;;15.26;65.09;98283.34;4456114;32;20080;-81
2023/05/01 03:52:25;;;;;;;12.55;5.68;;;;;;;15.86;62.58;98280.69;4456026;32;20093;-81
2023/05/01 03:54:52;;;;;;;12.55;6.12;;;;;;;15.53;63.19;98285.28;4456216;32;20105;-81
2023/05/01 03:57:28;;;;;;;13.05;6.43;;;;;;;16.03;61.34;98282.25;4456198;32;20093;-81
2023/05/01 03:59:54;;;;;;;13.27;5.75;;;;;;;16.05;60.69;98280.41;4455812;32;20157;-81
2023/05/01 04:02:22;;;;;;;11.40;5.35;;;;;;;16.29;58.83;98283.28;4456168;32;20089;-81
2023/05/01 04:04:49;;;;;;;12.32;5.65;;;;;;;15.46;60.46;98276.16;4455837;32;20510;-81
2023/05/01 04:07:16;;;;;;;12.73;5.93;;;;;;;15.68;58.70;98288.75;4455852;32;20089;-81
2023/05/01 04:09:43;;;;;;;15.00;5.62;;;;;;;15.98;57.30;98292.13;4456029;32;20111;-81
2023/05/01 04:12:10;;;;;;;14.55;4.90;;;;;;;15.90;55.85;98282.19;4456089;32;20085;-81
2023/05/01 04:14:36;;;;;;;12.27;4.82;;;;;;;15.59;55.42;98287.50;4455693;32;20162;-81
2023/05/01 04:17:03;;;;;;;10.02;4.37;;;;;;;15.43;55.74;98290.19;4456072;32;20100;-81
2023/05/01 04:19:30;;;;;;;11.60;4.45;;;;;;;15.14;55.84;98291.88;4456006;32;20069;-81
2023/05/01 04:21:57;;;;;;;11.05;4.35;;;;;;;15.61;53.96;98289.13;4455781;32;20104;-81
2023/05/01 04:24:24;;;;;;;13.45;4.65;;;;;;;16.51;51.08;98292.34;4455910;32;20109;-81
2023/05/01 04:26:51;;;;;;;7.60;3.58;;;;;;;17.09;49.71;98296.47;4455583;32;20101;-81
2023/05/01 04:29:18;;;;;;;10.57;4.40;;;;;;;18.31;46.69;98296.88;4455973;32;20431;-81
2023/05/01 04:31:45;;;;;;;10.27;4.30;;;;;;;18.23;46.97;98303.56;4455815;32;20455;-81
2023/05/01 04:34:12;;;;;;;10.38;4.25;;;;;;;18.85;45.93;98300.91;4455558;32;20150;-81
2023/05/01 04:36:39;;;;;;;11.27;4.60;;;;;;;19.47;44.64;98308.56;4455832;32;20436;-82
2023/05/01 04:39:05;;;;;;;11.77;4.65;;;;;;;19.68;44.37;98311.38;4455422;32;20407;-82
2023/05/01 04:41:32;;;;;;;9.63;3.72;;;;;;;18.39;46.71;98304.97;4455483;32;20144;-82
2023/05/01 04:43:59;;;;;;;9.90;4.03;;;;;;;18.66;43.19;98306.63;4455759;32;20092;-82
2023/05/01 04:46:26;;;;;;;8.05;3.62;;;;;;;18.23;42.55;98307.03;4455753;32;20153;-82
2023/05/01 04:48:53;;;;;;;11.75;3.60;;;;;;;18.17;42.99;98310.03;4455253;32;20435;-81
2023/05/01 04:51:20;;;;;;;8.90;3.17;;;;;;;18.53;41.43;98309.25;4455603;32;20142;-81
2023/05/01 04:53:47;;;;;;;9.25;3.22;;;;;;;18.33;41.07;98308.03;4455579;32;20106;-81
2023/05/01 04:56:14;;;;;;;11.77;3.40;;;;;;;17.84;41.43;98305.38;4455134;32;20089;-81
2023/05/01 04:58:41;;;;;;;8.60;3.30;;;;;;;16.44;42.91;98299.69;4455616;32;20681;-81
2023/05/01 05:01:08;;;;;;;6.47;2.37;;;;;;;17.22;41.11;98299.94;4455510;32;20466;-81
2023/05/01 05:03:35;;;;;;;8.90;2.90;;;;;;;17.27;40.50;98300.47;4455013;32;20104;-81
2023/05/01 05:06:03;;;;;;;9.40;2.47;;;;;;;17.63;39.46;98300.63;4455664;32;20561;-81
2023/05/01 05:08:30;;;;;;;6.53;2.65;;;;;;;17.72;38.68;98309.66;4455504;32;20124;-82
2023/05/01 05:10:58;;;;;;;7.12;2.37;;;;;;;18.20;37.72;98296.78;4454986;32;20423;-82
2023/05/01 05:13:26;;;;;;;5.28;2.12;;;;;;;17.66;38.41;98304.81;4455397;32;20124;-82
2023/05/01 05:15:53;;;;;;;7.82;2.97;;;;;;;17.73;39.38;98300.03;4454877;32;20090;-81
2023/05/01 05:18:20;;;;;;;8.85;2.90;;;;;;;18.04;38.60;98304.84;4455323;32;20131;-81
2023/05/01 05:20:47;;;;;;;8.25;3.22;;;;;;;17.64;39.19;98306.69;4455334;32;20084;-81
2023/05/01 05:23:14;;;;;;;8.65;3.20;;;;;;;17.44;39.60;98308.03;4440973;32;20105;-81
2023/05/01 05:25:41;;;;;;;9.35;3.22;;;;;;;16.88;40.61;98298.69;4455114;32;20089;-81
2023/05/01 05:28:08;;;;;;;8.20;2.83;;;;;;;17.60;38.85;98313.06;4455041;32;20085;-81
2023/05/01 05:30:35;;;;;;;6.28;2.50;;;;;;;18.41;37.28;98321.41;4454757;32;20108;-81
2023/05/01 05:33:03;;;;;;;7.97;2.80;;;;;;;19.01;36.71;98322.38;4455142;32;20842;-81
2023/05/01 05:35:30;;;;;;;5.53;2.60;;;;;;;18.78;36.98;98318.81;4454937;32;20447;-81
2023/05/01 05:37:57;;;;;;;7.95;3.00;;;;;;;19.23;35.46;98324.25;4454573;32;20418;-81
2023/05/01 05:40:24;;;;;;;7.25;2.33;;;;;;;18.66;37.13;98328.38;4454899;32;20093;-81
2023/05/01 05:42:51;;;;;;;7.93;2.83;;;;;;;19.34;34.33;98332.97;4454995;32;20093;-81
2023/05/01 05:45:18;;;;;;;6.22;2.20;;;;;;;18.83;35.00;98339.41;4454537;32;20105;-81
2023/05/01 05:47:45;;;;;;;7.22;2.90;;;;;;;17.90;34.78;98342.34;4454864;32;20085;-81
2023/05/01 05:50:12;;;;;;;4.05;1.67;;;;;;;17.94;36.18;98345.56;4454754;32;20146;-81
2023/05/01 05:52:39;;;;;;;6.35;2.60;;;;;;;18.15;35.02;98338.87;4456064;32;20111;-81
2023/05/01 05:55:06;;;;;;;7.10;2.33;;;;;;;18.01;36.42;98343.38;4457017;32;20103;-81
2023/05/01 05:57:36;;;;;;;5.03;2.25;;;;;;;19.41;34.04;98348.25;4443151;32;20439;-81
2023/05/01 06:00:04;;;;;;;3.42;1.50;;;;;;;17.54;34.73;98345.59;4456593;32;20098;-81
2023/05/01 06:02:31;;;;;;;7.87;2.40;;;;;;;18.25;33.44;98341.69;4457118;32;20459;-82
2023/05/01 06:04:58;;;;;;;6.10;2.40;;;;;;;18.01;34.44;98339.00;4442310;32;20444;-82
2023/05/01 06:07:25;;;;;;;5.18;1.87;;;;;;;17.47;35.47;98335.69;4457032;32;20093;-81
2023/05/01 06:09:52;;;;;;;5.37;2.45;;;;;;;17.42;34.90;98342.97;4456998;32;20440;-81
2023/05/01 06:12:19;;;;;;;6.18;2.47;;;;;;;17.19;35.30;98344.47;4456513;32;20155;-81
2023/05/01 06:14:46;;;;;;;5.35;2.42;;;;;;;17.88;34.80;98348.63;4456949;32;20089;-81
2023/05/01 06:17:13;;;;;;;6.70;2.30;;;;;;;17.81;35.04;98337.75;4456926;32;20436;-81
2023/05/01 06:19:40;;;;;;;5.15;1.90;;;;;;;17.26;35.92;98346.59;4442539;32;20561;-81
2023/05/01 06:22:07;;;;;;;5.80;2.22;;;;;;;17.97;35.52;98353.22;4457014;32;20096;-81
2023/05/01 06:24:35;;;;;;;8.18;2.33;;;;;;;18.07;35.02;98349.00;4456863;32;20161;-81
2023/05/01 06:27:02;;;;;;;6.15;2.20;;;;;;;18.55;33.75;98340.50;4456455;32;20085;-81
2023/05/01 06:29:29;;;;;;;5.12;2.10;;;;;;;18.01;34.87;98351.22;4456715;32;20088;-81
2023/05/01 06:31:56;;;;;;;8.68;2.33;;;;;;;18.44;33.80;98346.47;4456763;32;20112;-81
2023/05/01 06:34:23;;;;;;;8.15;2.58;;;;;;;18.91;33.71;98344.91;4456367;32;20093;-81
2023/05/01 06:36:50;;;;;;;5.00;2.30;;;;;;;18.42;33.56;98351.81;4456809;32;20077;-81
2023/05/01 06:39:17;;;;;;;9.82;2.87;;;;;;;18.28;32.84;98353.69;4456721;32;20106;-81
2023/05/01 06:41:47;;;;;;;8.27;3.03;;;;;;;17.68;33.85;98351.69;4456503;32;20085;-81
2023/05/01 06:44:15;;;;;;;7.55;2.60;;;;;;;17.76;34.49;98354.66;4456676;32;20089;-81
2023/05/01 06:46:42;;;;;;;8.07;2.40;;;;;;;18.14;33.91;98349.44;4456721;32;20497;-81
2023/05/01 06:49:09;;;;;;;8.45;2.30;;;;;;;17.95;33.95;98352.44;4456251;32;20090;-81
2023/05/01 06:51:36;;;;;;;6.97;2.08;;;;;;;17.60;34.02;98353.03;4456675;32;20089;-81
2023/05/01 06:54:03;;;;;;;3.72;1.65;;;;;;;17.40;33.17;98347.44;4456180;32;20072;-81
2023/05/01 06:56:31;;;;;;;5.40;2.10;;;;;;;17.63;33.24;98351.97;4456685;32;20085;-81
2023/05/01 06:58:58;;;;;;;5.40;1.80;;;;;;;16.85;35.08;98354.44;4456668;32;20138;-81
2023/05/01 07:01:25;;;;;;;3.97;1.58;;;;;;;17.82;33.84;98338.56;4456321;32;20173;-81
2023/05/01 07:03:52;;;;;;;6.53;1.92;;;;;;;17.95;32.92;98356.84;4456205;32;20125;-81
2023/05/01 07:06:18;;;;;;;7.45;2.50;;;;;;;17.46;33.02;98349.66;4456636;32;20088;-81
2023/05/01 07:08:46;;;;;;;7.32;2.20;;;;;;;17.58;33.94;98347.06;4456223;32;20088;-81
2023/05/01 07:11:13;;;;;;;6.82;2.47;;;;;;;17.66;34.26;98348.34;4456548;32;20452;-81
2023/05/01 07:13:39;;;;;;;7.47;1.90;;;;;;;17.87;35.53;98357.38;4456473;32;20089;-81
2023/05/01 07:16:06;;;;;;;5.28;1.85;;;;;;;18.81;32.68;98363.03;4456065;32;20134;-81
2023/05/01 07:18:34;;;;;;;7.05;2.35;;;;;;;18.47;32.11;98348.88;4456370;32;20158;-81
2023/05/01 07:21:01;;;;;;;6.07;1.92;;;;;;;17.99;33.79;98355.72;4456473;32;20364;-81
2023/05/01 07:23:28;;;;;;;6.90;2.10;;;;;;;18.28;33.23;98359.75;4456270;32;20089;-81
2023/05/01 07:25:55;;;;;;;5.90;2.10;;;;;;;18.57;32.90;98351.66;4456346;32;20130;-81
2023/05/01 07:28:22;;;;;;;8.80;2.60;;;;;;;18.88;32.79;98342.53;4456488;32;20131;-81
2023/05/01 07:30:49;;;;;;;7.28;2.20;;;;;;;18.90;31.92;98345.84;4455988;32;20098;-81
2023/05/01 07:33:17;;;;;;;8.63;2.67;;;;;;;19.01;33.74;98351.97;4456390;32;20158;-81
2023/05/01 07:35:44;;;;;;;7.20;2.33;;;;;;;19.22;31.66;98360.06;4456185;32;20107;-81
2023/05/01 07:38:12;;;;;;;6.95;2.30;;;;;;;19.56;32.14;98368.06;4455892;32;20093;-81
2023/05/01 07:40:39;;;;;;;5.95;2.00;;;;;;;20.03;30.79;98359.25;4456427;32;20102;-81
2023/05/01 07:43:09;;;;;;;6.18;1.80;;;;;;;20.39;29.37;98360.81;4456178;32;20085;-81
2023/05/01 07:45:37;;;;;;;6.68;2.05;;;;;;;19.61;31.01;98355.47;4456269;32;20085;-81
2023/05/01 07:48:05;;;;;;;4.20;1.37;;;;;;;18.71;31.12;98365.47;4456145;32;20112;-81
2023/05/01 07:50:32;;;;;;;7.32;2.30;;;;;;;18.79;31.43;98357.06;4455998;32;20097;-81
2023/05/01 07:52:59;;;;;;;8.13;3.53;;;;;;;19.21;31.37;98363.63;4456314;32;20081;-81
2023/05/01 07:55:25;;;;;;;5.05;2.30;;;;;;;19.15;31.88;98361.47;4456127;32;20081;-81
2023/05/01 07:57:53;;;;;;;8.23;2.40;;;;;;;19.60;31.42;98361.66;4455802;32;20364;-81
2023/05/01 08:00:20;;;;;;;5.82;1.65;;;;;;;19.84;30.39;98367.69;4456327;32;20111;-81
2023/05/01 08:02:47;;;;;;;6.72;2.12;;;;;;;19.93;30.09;98364.38;4456150;32;20085;-81
2023/05/01 08:05:14;;;;;;;6.87;2.30;;;;;;;19.08;31.13;98368.06;4455482;32;20380;-81
2023/05/01 08:07:41;;;;;;;4.87;1.75;;;;;;;19.53;32.27;98370.87;4456019;32;20093;-81
2023/05/01 08:10:08;;;;;;;7.53;2.25;;;;;;;20.31;29.40;98375.47;4456123;32;20085;-81
2023/05/01 08:12:35;;;;;;;5.10;2.00;;;;;;;20.24;30.84;98372.50;4455563;32;20081;-81
2023/05/01 08:15:02;;;;;;;6.20;2.30;;;;;;;20.22;30.32;98380.50;4455303;32;20420;-81
2023/05/01 08:17:29;;;;;;;7.00;2.53;;;;;;;19.31;30.14;98376.87;4456064;32;20093;-81
2023/05/01 08:19:56;;;;;;;7.78;2.25;;;;;;;19.88;31.60;98377.00;4455826;32;20111;-81
2023/05/01 08:22:23;;;;;;;6.70;2.25;;;;;;;19.61;31.16;98379.88;4456090;32;20160;-81
2023/05/01 08:24:50;;;;;;;4.90;1.83;;;;;;;19.52;31.89;98380.53;4455920;32;20077;-81
2023/05/01 08:27:18;;;;;;;5.65;2.17;;;;;;;20.60;29.05;98368.84;4455677;32;20093;-81
2023/05/01 08:29:44;;;;;;;7.15;2.20;;;;;;;19.77;31.49;98368.25;4441996;32;20123;-81
2023/05/01 08:32:11;;;;;;;7.70;2.47;;;;;;;19.32;31.27;98366.28;4455340;32;20085;-81
2023/05/01 08:34:38;;;;;;;9.02;2.30;;;;;;;19.31;30.83;98366.41;4455801;32;20080;-81
2023/05/01 08:37:05;;;;;;;6.30;2.10;;;;;;;20.18;29.86;98368.56;4455885;32;20461;-81
2023/05/01 08:39:32;;;;;;;8.65;2.28;;;;;;;21.20;29.89;98367.53;4455531;32;20150;-81
2023/05/01 08:41:59;;;;;;;6.20;2.30;;;;;;;21.57;29.58;98375.03;4455725;32;20146;-81
2023/05/01 08:44:27;;;;;;;8.48;2.37;;;;;;;20.96;28.91;98374.75;4455667;32;20436;-81
2023/05/01 08:47:06;;;;;;;7.20;2.40;;;;;;;21.86;30.34;98372.63;4455395;32;20101;-81
2023/05/01 08:49:35;;;;;;;7.18;1.83;;;;;;;22.28;27.22;98375.25;4455733;32;20112;-81
2023/05/01 08:52:03;;;;;;;6.00;2.33;;;;;;;22.32;27.04;98374.84;4441712;32;20089;-81
2023/05/01 08:54:31;;;;;;;8.00;2.40;;;;;;;22.31;27.30;98380.25;4441275;32;20077;-81
2023/05/01 08:57:03;;;;;;;6.87;2.10;;;;;;;22.37;26.73;98371.84;4455537;32;20166;-81
2023/05/01 08:59:33;;;;;;;3.25;1.23;;;;;;;21.33;27.91;98367.38;4455651;32;20105;-81
2023/05/01 09:02:03;;;;;;;8.38;2.10;;;;;;;20.93;27.90;98367.94;4455325;32;20107;-81
2023/05/01 09:04:34;;;;;;;7.45;2.50;;;;;;;20.02;29.93;98370.69;4455205;32;20453;-81
2023/05/01 09:07:01;;;;;;;5.47;1.98;;;;;;;21.35;28.17;98365.47;4455498;32;20093;-81
2023/05/01 09:09:30;;;;;;;8.32;2.75;;;;;;;21.37;28.47;98367.03;4455021;32;20101;-81
2023/05/01 09:12:00;;;;;;;6.78;2.10;;;;;;;21.36;29.11;98362.72;4455362;32;20085;-81
2023/05/01 09:14:28;;;;;;;7.70;2.83;;;;;;;21.66;27.13;98359.34;4455014;32;20138;-81
2023/05/01 09:16:55;;;;;;;3.33;1.65;;;;;;;22.01;26.60;98358.22;4441397;32;20447;-81
2023/05/01 09:19:22;;;;;;;7.60;2.45;;;;;;;22.22;26.82;98352.94;4455359;32;20101;-81
2023/05/01 09:21:49;;;;;;;7.18;2.47;;;;;;;22.66;27.92;98357.00;4454897;32;20081;-81
2023/05/01 09:24:16;;;;;;;8.52;2.90;;;;;;;22.63;26.63;98348.53;4440121;32;20398;-81
2023/05/01 09:26:43;;;;;;;6.87;1.90;;;;;;;23.12;25.97;98347.72;4455734;32;20097;-81
2023/05/01 09:29:10;;;;;;;5.60;2.30;;;;;;;22.07;27.47;98347.22;4456905;32;20119;-81
2023/05/01 09:31:37;;;;;;;8.35;2.90;;;;;;;21.55;28.38;98343.66;4457177;32;20103;-81
2023/05/01 09:34:05;;;;;;;5.70;2.00;;;;;;;22.18;28.09;98355.00;4457095;32;20136;-81
2023/05/01 09:36:33;;;;;;;7.95;2.60;;;;;;;22.21;27.72;98354.72;4456958;32;20565;-81
2023/05/01 09:39:01;;;;;;;7.22;2.28;;;;;;;22.11;27.63;98345.97;4457260;32;20115;-81
2023/05/01 09:41:28;;;;;;;6.97;2.28;;;;;;;23.03;26.59;98335.38;4457210;32;20160;-81
2023/05/01 09:43:56;;;;;;;6.53;2.75;;;;;;;23.22;26.69;98340.66;4456783;32;20092;-81
2023/05/01 09:46:24;;;;;;;7.80;2.30;;;;;;;23.41;27.92;98344.28;4456934;32;20093;-81
2023/05/01 09:48:57;;;;;;;6.68;2.20;;;;;;;22.72;25.52;98337.22;4456988;32;20093;-81
2023/05/01 09:51:32;;;;;;;6.22;2.53;;;;;;;21.20;28.74;98333.41;4456695;32;20695;-81
2023/05/01 09:54:01;;;;;;;6.93;2.25;;;;;;;21.91;27.78;98341.56;4457171;32;20077;-81
2023/05/01 09:56:30;;;;;;;7.28;2.37;;;;;;;21.94;26.22;98334.25;4456635;32;20505;-81
2023/05/01 09:59:13;;;;;;;7.75;2.75;;;;;;;22.41;26.78;98328.53;4457086;32;20172;-81
2023/05/01 10:01:42;;;;;;;5.93;2.50;;;;;;;22.43;26.12;98321.34;4457102;32;20089;-81
2023/05/01 10:04:09;;;;;;;6.35;2.37;;;;;;;22.29;27.33;98324.34;4456418;32;20372;-81
2023/05/01 10:06:37;;;;;;;7.32;2.47;;;;;;;22.66;26.71;98324.63;4456951;32;20109;-81
2023/05/01 10:09:15;;;;;;;9.43;2.40;;;;;;;23.23;26.76;98326.53;4456904;32;20341;-81
2023/05/01 10:11:54;;;;;;;7.45;2.50;;;;;;;23.75;25.95;98327.06;4456537;32;20081;-81
2023/05/01 10:14:22;;;;;;;7.45;2.72;;;;;;;23.81;25.96;98323.03;4456954;32;20477;-81
2023/05/01 10:16:51;;;;;;;10.27;2.80;;;;;;;23.07;25.23;98323.59;4456991;32;20158;-81
2023/05/01 10:19:19;;;;;;;7.00;2.62;;;;;;;23.41;24.41;98321.41;4456289;32;20154;-81
2023/05/01 10:21:46;;;;;;;4.37;1.83;;;;;;;23.45;27.15;98330.66;4457047;32;20099;-81
2023/05/01 10:24:14;;;;;;;4.75;2.12;;;;;;;22.69;25.89;98309.41;4456792;32;20076;-81
2023/05/01 10:26:42;;;;;;;5.75;2.17;;;;;;;22.85;25.90;98324.66;4442593;32;20093;-81
2023/05/01 10:29:09;;;;;;;5.53;2.20;;;;;;;22.10;26.34;98307.53;4456735;32;20361;-81
2023/05/01 10:31:36;;;;;;;8.43;2.20;;;;;;;22.46;27.12;98315.84;4442432;32;20106;-81
2023/05/01 10:34:06;;;;;;;7.07;2.65;;;;;;;22.44;27.73;98307.25;4456626;32;20085;-81
2023/05/01 10:36:38;;;;;;;6.22;2.12;;;;;;;21.85;26.36;98308.75;4456683;32;20158;-81
2023/05/01 10:39:05;;;;;;;5.70;2.15;;;;;;;22.60;26.96;98309.37;4456062;32;20137;-81
2023/05/01 10:41:57;;;;;;;3.70;1.50;;;;;;;22.56;28.36;98306.19;4456718;32;20089;-81
2023/05/01 10:44:25;;;;;;;3.97;2.00;;;;;;;22.81;25.53;98312.72;4456502;32;20158;-81
2023/05/01 10:46:53;;;;;;;9.02;2.37;;;;;;;21.86;27.32;98306.97;4456386;32;20124;-81
2023/05/01 10:49:21;;;;;;;5.50;1.83;;;;;;;22.45;25.15;98303.66;4456660;32;20106;-81
2023/05/01 10:51:58;;;;;;;6.53;2.10;;;;;;;22.18;28.51;98307.69;4456517;32;20134;-81
2023/05/01 10:54:28;;;;;;;8.50;2.03;;;;;;;22.58;27.74;98306.03;4456243;32;20448;-81
2023/05/01 10:56:57;;;;;;;5.40;1.90;;;;;;;22.54;27.10;98294.94;4456728;32;20423;-81
2023/05/01 10:59:24;;;;;;;4.68;1.98;;;;;;;22.63;26.81;98307.28;4456567;32;20130;-81
2023/05/01 11:01:52;;;;;;;8.65;2.17;;;;;;;23.32;25.96;98306.44;4442263;32;20145;-81
2023/05/01 11:04:23;;;;;;;6.82;2.17;;;;;;;23.08;25.84;98301.59;4456160;32;20077;-81
2023/05/01 11:07:07;;;;;;;8.73;1.85;;;;;;;23.40;25.64;98297.84;4456312;32;20144;-81
2023/05/01 11:09:35;;;;;;;6.85;2.10;;;;;;;22.65;25.77;98294.88;4456508;32;20112;-81
2023/05/01 11:12:03;;;;;;;4.78;1.95;;;;;;;23.40;26.82;98297.84;4456355;32;20085;-81
2023/05/01 11:15:07;;;;;;;8.05;2.10;;;;;;;23.27;25.83;98291.03;4456063;32;20080;-81
2023/05/01 11:17:40;;;;;;;7.32;2.10;;;;;;;23.20;27.10;98278.59;4456486;32;20499;-81
2023/05/01 11:20:31;;;;;;;5.85;1.90;;;;;;;23.26;27.14;98276.22;4456451;32;20100;-81
2023/05/01 11:22:58;;;;;;;8.48;1.80;;;;;;;23.51;26.04;98276.63;4442873;32;20084;-81
2023/05/01 11:25:32;;;;;;;6.65;2.00;;;;;;;24.06;24.55;98274.12;4456302;32;20074;-82
2023/05/01 11:28:01;;;;;;;4.97;1.65;;;;;;;24.07;24.68;98265.25;4456044;32;20132;-82
2023/05/01 11:30:38;;;;;;;4.60;1.80;;;;;;;23.97;25.68;98260.03;4456442;32;20111;-81
2023/05/01 11:33:05;;;;;;;;;;;;;;;23.82;25.82;98264.06;4456680;32;20136;-81
2023/05/01 11:35:36;;;;;;;6.03;2.00;;;;;;;23.76;24.67;98269.94;4456000;32;19968;-81
2023/05/01 11:38:03;;;;;;;3.33;1.42;;;;;;;23.51;24.95;98251.12;4456292;32;20105;-82